createdAt,value
2018-05-12T00:00:00.065Z,0.00
2018-05-12T00:01:00.084Z,0.00
2018-05-12T00:02:00.105Z,0.00
2018-05-12T00:03:00.128Z,0.00
2018-05-12T00:04:00.149Z,0.00
2018-05-12T00:05:00.171Z,0.00
2018-05-12T00:06:00.194Z,0.00
2018-05-12T00:07:00.215Z,0.00
2018-05-12T00:08:00.237Z,0.00
2018-05-12T00:09:00.259Z,0.00
2018-05-12T00:10:00.280Z,0.00
2018-05-12T00:11:00.303Z,0.00
2018-05-12T00:12:00.325Z,0.00
2018-05-12T00:13:00.346Z,0.00
2018-05-12T00:14:00.368Z,0.00
2018-05-12T00:15:00.461Z,0.00
2018-05-12T00:16:00.413Z,0.00
2018-05-12T00:17:00.436Z,0.00
2018-05-12T00:18:00.455Z,0.00
2018-05-12T00:19:00.477Z,0.00
2018-05-12T00:20:00.500Z,0.00
2018-05-12T00:21:00.523Z,0.00
2018-05-12T00:22:00.549Z,0.00
2018-05-12T00:23:00.565Z,0.00
2018-05-12T00:24:00.588Z,0.00
2018-05-12T00:25:00.609Z,0.00
2018-05-12T00:26:00.634Z,0.00
2018-05-12T00:27:00.657Z,0.00
2018-05-12T00:28:00.675Z,0.00
2018-05-12T00:29:00.696Z,0.00
2018-05-12T00:30:00.717Z,0.00
2018-05-12T00:31:00.740Z,0.00
2018-05-12T00:32:00.762Z,0.00
2018-05-12T00:33:00.787Z,0.00
2018-05-12T00:34:00.805Z,0.00
2018-05-12T00:35:00.827Z,0.00
2018-05-12T00:36:00.849Z,0.00
2018-05-12T00:37:00.871Z,0.00
2018-05-12T00:38:00.892Z,0.00
2018-05-12T00:39:00.917Z,0.00
2018-05-12T00:40:00.938Z,0.00
2018-05-12T00:41:00.957Z,0.00
2018-05-12T00:42:00.984Z,0.00
2018-05-12T00:43:01.062Z,0.00
2018-05-12T00:44:01.023Z,0.00
2018-05-12T00:45:01.045Z,0.00
2018-05-12T00:46:01.070Z,0.00
2018-05-12T00:47:01.089Z,0.00
2018-05-12T00:48:01.110Z,0.00
2018-05-12T00:49:01.132Z,0.00
2018-05-12T00:50:01.155Z,0.00
2018-05-12T00:51:01.175Z,0.00
2018-05-12T00:52:01.197Z,0.00
2018-05-12T00:53:01.219Z,0.00
2018-05-12T00:54:01.240Z,0.00
2018-05-12T00:55:01.263Z,0.00
2018-05-12T00:56:01.287Z,0.00
2018-05-12T00:57:01.308Z,0.00
2018-05-12T00:58:01.328Z,0.00
2018-05-12T00:59:01.350Z,0.00
2018-05-12T01:00:01.372Z,0.00
2018-05-12T01:01:01.397Z,0.00
2018-05-12T01:02:01.415Z,0.00
2018-05-12T01:03:01.437Z,0.00
2018-05-12T01:04:01.459Z,0.00
2018-05-12T01:05:01.481Z,0.00
2018-05-12T01:06:01.502Z,0.00
2018-05-12T01:07:01.527Z,0.00
2018-05-12T01:08:01.546Z,0.00
2018-05-12T01:09:01.567Z,0.00
2018-05-12T01:10:01.590Z,0.00
2018-05-12T01:11:01.611Z,0.00
2018-05-12T01:12:01.633Z,0.00
2018-05-12T01:13:01.654Z,0.00
2018-05-12T01:14:01.682Z,0.00
2018-05-12T01:15:01.699Z,0.00
2018-05-12T01:16:01.719Z,0.00
2018-05-12T01:17:01.744Z,0.00
2018-05-12T01:18:01.763Z,0.00
2018-05-12T01:19:01.785Z,0.00
2018-05-12T01:20:01.808Z,0.00
2018-05-12T01:21:01.829Z,0.00
2018-05-12T01:22:01.851Z,0.00
2018-05-12T01:23:01.872Z,0.00
2018-05-12T01:24:01.898Z,0.00
2018-05-12T01:25:01.916Z,0.00
2018-05-12T01:26:01.937Z,0.00
2018-05-12T01:27:01.959Z,0.00
2018-05-12T01:28:01.982Z,0.00
2018-05-12T01:29:02.002Z,0.00
2018-05-12T01:30:02.025Z,0.00
2018-05-12T01:31:02.047Z,0.00
2018-05-12T01:32:02.269Z,0.00
2018-05-12T01:33:02.091Z,0.00
2018-05-12T01:34:02.116Z,0.00
2018-05-12T01:35:02.139Z,0.00
2018-05-12T01:36:02.157Z,0.00
2018-05-12T01:37:02.178Z,0.00
2018-05-12T01:38:02.199Z,0.00
2018-05-12T01:39:02.222Z,0.00
2018-05-12T01:40:02.243Z,0.00
2018-05-12T01:41:02.265Z,0.00
2018-05-12T01:42:02.286Z,0.00
2018-05-12T01:43:02.308Z,0.00
2018-05-12T01:44:02.330Z,0.00
2018-05-12T01:45:02.353Z,0.00
2018-05-12T01:46:02.373Z,0.00
2018-05-12T01:47:02.395Z,0.00
2018-05-12T01:48:02.417Z,0.00
2018-05-12T01:49:02.439Z,0.00
2018-05-12T01:50:02.462Z,0.00
2018-05-12T01:51:02.482Z,0.00
2018-05-12T01:52:02.506Z,0.00
2018-05-12T01:53:02.526Z,0.00
2018-05-12T01:54:02.547Z,0.00
2018-05-12T01:55:02.568Z,0.00
2018-05-12T01:56:02.596Z,0.00
2018-05-12T01:57:02.613Z,0.00
2018-05-12T01:58:02.639Z,0.00
2018-05-12T01:59:02.656Z,0.00
2018-05-12T02:00:02.678Z,0.00
2018-05-12T02:01:02.700Z,0.00
2018-05-12T02:02:02.722Z,0.00
2018-05-12T02:03:02.744Z,0.00
2018-05-12T02:04:02.766Z,0.00
2018-05-12T02:05:02.791Z,0.00
2018-05-12T02:06:02.809Z,0.00
2018-05-12T02:07:02.831Z,0.00
2018-05-12T02:08:02.853Z,0.00
2018-05-12T02:09:02.883Z,0.00
2018-05-12T02:10:02.897Z,0.00
2018-05-12T02:11:02.919Z,0.00
2018-05-12T02:12:02.941Z,0.00
2018-05-12T02:13:02.964Z,0.00
2018-05-12T02:14:02.985Z,0.00
2018-05-12T02:15:03.006Z,0.00
2018-05-12T02:16:03.028Z,0.00
2018-05-12T02:17:03.049Z,0.00
2018-05-12T02:18:03.072Z,0.00
2018-05-12T02:19:03.094Z,0.00
2018-05-12T02:20:03.116Z,0.00
2018-05-12T02:21:03.138Z,0.00
2018-05-12T02:22:03.159Z,0.00
2018-05-12T02:23:03.181Z,0.00
2018-05-12T02:24:03.206Z,0.00
2018-05-12T02:25:03.230Z,0.00
2018-05-12T02:26:03.246Z,0.00
2018-05-12T02:27:03.268Z,0.00
2018-05-12T02:28:03.293Z,0.00
2018-05-12T02:29:03.313Z,0.00
2018-05-12T02:30:03.334Z,0.00
2018-05-12T02:31:03.356Z,0.00
2018-05-12T02:32:03.377Z,0.00
2018-05-12T02:33:03.401Z,0.00
2018-05-12T02:34:03.422Z,0.00
2018-05-12T02:35:03.448Z,0.00
2018-05-12T02:36:03.466Z,0.00
2018-05-12T02:37:03.488Z,0.00
2018-05-12T02:38:03.511Z,0.00
2018-05-12T02:39:03.533Z,0.00
2018-05-12T02:40:03.555Z,0.00
2018-05-12T02:41:03.580Z,0.00
2018-05-12T02:42:03.597Z,0.00
2018-05-12T02:43:03.618Z,0.00
2018-05-12T02:44:03.642Z,0.00
2018-05-12T02:45:03.665Z,0.00
2018-05-12T02:46:03.683Z,0.00
2018-05-12T02:47:03.707Z,0.00
2018-05-12T02:48:03.728Z,0.00
2018-05-12T02:49:03.751Z,0.00
2018-05-12T02:50:03.771Z,0.00
2018-05-12T02:51:03.793Z,0.00
2018-05-12T02:52:03.815Z,0.00
2018-05-12T02:53:03.836Z,0.00
2018-05-12T02:54:03.863Z,0.00
2018-05-12T02:55:03.880Z,0.00
2018-05-12T02:56:03.902Z,0.00
2018-05-12T02:57:03.925Z,0.00
2018-05-12T02:58:03.946Z,0.00
2018-05-12T02:59:03.966Z,0.00
2018-05-12T03:00:03.989Z,0.00
2018-05-12T03:01:04.019Z,0.00
2018-05-12T03:02:04.031Z,0.00
2018-05-12T03:03:04.053Z,0.00
2018-05-12T03:04:04.079Z,0.00
2018-05-12T03:05:04.097Z,0.00
2018-05-12T03:06:04.119Z,0.00
2018-05-12T03:07:04.141Z,0.00
2018-05-12T03:08:04.163Z,0.00
2018-05-12T03:09:04.184Z,0.00
2018-05-12T03:10:04.205Z,0.00
2018-05-12T03:11:04.227Z,0.00
2018-05-12T03:12:04.248Z,0.00
2018-05-12T03:13:04.270Z,0.00
2018-05-12T03:14:04.293Z,0.00
2018-05-12T03:15:04.318Z,0.00
2018-05-12T03:16:04.334Z,0.00
2018-05-12T03:17:04.357Z,0.00
2018-05-12T03:18:04.377Z,0.00
2018-05-12T03:19:04.398Z,0.00
2018-05-12T03:20:04.420Z,0.00
2018-05-12T03:21:04.442Z,0.00
2018-05-12T03:22:04.464Z,0.00
2018-05-12T03:23:04.484Z,0.00
2018-05-12T03:24:04.507Z,0.00
2018-05-12T03:25:04.527Z,0.00
2018-05-12T03:26:04.611Z,0.00
2018-05-12T03:27:04.570Z,0.00
2018-05-12T03:28:04.591Z,0.00
2018-05-12T03:29:04.612Z,0.00
2018-05-12T03:30:04.633Z,0.00
2018-05-12T03:31:04.655Z,0.00
2018-05-12T03:32:04.676Z,0.00
2018-05-12T03:33:04.698Z,0.00
2018-05-12T03:34:04.719Z,0.00
2018-05-12T03:35:04.739Z,0.00
2018-05-12T03:36:04.765Z,0.00
2018-05-12T03:37:04.783Z,0.00
2018-05-12T03:38:04.803Z,0.00
2018-05-12T03:39:04.825Z,0.00
2018-05-12T03:40:04.847Z,0.00
2018-05-12T03:41:04.869Z,0.00
2018-05-12T03:42:04.895Z,0.00
2018-05-12T03:43:04.910Z,0.00
2018-05-12T03:44:04.932Z,0.00
2018-05-12T03:45:04.953Z,5.63
2018-05-12T03:46:04.972Z,5.63
2018-05-12T03:47:04.995Z,5.63
2018-05-12T03:48:05.016Z,5.63
2018-05-12T03:49:05.041Z,5.63
2018-05-12T03:50:05.058Z,5.63
2018-05-12T03:51:05.080Z,5.63
2018-05-12T03:52:05.101Z,5.63
2018-05-12T03:53:05.123Z,5.63
2018-05-12T03:54:05.143Z,5.63
2018-05-12T03:55:05.164Z,5.63
2018-05-12T03:56:05.185Z,5.63
2018-05-12T03:57:05.207Z,11.25
2018-05-12T03:58:05.228Z,11.25
2018-05-12T03:59:05.250Z,11.25
2018-05-12T04:00:05.348Z,11.25
2018-05-12T04:01:05.292Z,11.25
2018-05-12T04:02:05.313Z,11.25
2018-05-12T04:03:05.333Z,11.25
2018-05-12T04:04:05.356Z,11.25
2018-05-12T04:05:05.381Z,11.25
2018-05-12T04:06:05.397Z,11.25
2018-05-12T04:07:05.418Z,16.88
2018-05-12T04:08:05.439Z,16.88
2018-05-12T04:09:05.462Z,16.88
2018-05-12T04:10:05.483Z,16.88
2018-05-12T04:11:05.503Z,16.88
2018-05-12T04:12:05.526Z,16.88
2018-05-12T04:13:05.545Z,16.88
2018-05-12T04:14:05.566Z,16.88
2018-05-12T04:15:05.592Z,22.50
2018-05-12T04:16:05.609Z,22.50
2018-05-12T04:17:05.635Z,22.50
2018-05-12T04:18:05.651Z,22.50
2018-05-12T04:19:05.672Z,22.50
2018-05-12T04:20:05.695Z,22.50
2018-05-12T04:21:05.808Z,28.13
2018-05-12T04:22:05.735Z,28.13
2018-05-12T04:23:05.756Z,28.13
2018-05-12T04:24:05.777Z,28.13
2018-05-12T04:25:05.799Z,28.13
2018-05-12T04:26:05.819Z,28.13
2018-05-12T04:27:05.841Z,28.13
2018-05-12T04:28:05.861Z,33.75
2018-05-12T04:29:05.883Z,33.75
2018-05-12T04:30:05.904Z,33.75
2018-05-12T04:31:05.924Z,33.75
2018-05-12T04:32:05.947Z,33.75
2018-05-12T04:33:05.967Z,33.75
2018-05-12T04:34:05.988Z,39.38
2018-05-12T04:35:06.009Z,39.38
2018-05-12T04:36:06.031Z,39.38
2018-05-12T04:37:06.052Z,39.38
2018-05-12T04:38:06.074Z,39.38
2018-05-12T04:39:06.094Z,39.38
2018-05-12T04:40:06.115Z,45.00
2018-05-12T04:41:06.136Z,45.00
2018-05-12T04:42:06.157Z,45.00
2018-05-12T04:43:06.177Z,45.00
2018-05-12T04:44:06.200Z,45.00
2018-05-12T04:45:06.221Z,45.00
2018-05-12T04:46:06.241Z,50.63
2018-05-12T04:47:06.263Z,50.63
2018-05-12T04:48:06.283Z,50.63
2018-05-12T04:49:06.306Z,50.63
2018-05-12T04:50:06.326Z,50.63
2018-05-12T04:51:06.347Z,50.63
2018-05-12T04:52:06.369Z,50.63
2018-05-12T04:53:06.396Z,50.63
2018-05-12T04:54:06.412Z,50.63
2018-05-12T04:55:06.432Z,56.25
2018-05-12T04:56:06.454Z,56.25
2018-05-12T04:57:06.475Z,56.25
2018-05-12T04:58:06.494Z,56.25
2018-05-12T04:59:06.519Z,56.25
2018-05-12T05:00:06.538Z,56.25
2018-05-12T05:01:06.561Z,56.25
2018-05-12T05:02:06.581Z,56.25
2018-05-12T05:03:06.601Z,56.25
2018-05-12T05:04:06.624Z,56.25
2018-05-12T05:05:06.646Z,56.25
2018-05-12T05:06:06.666Z,56.25
2018-05-12T05:07:06.688Z,61.88
2018-05-12T05:08:06.756Z,61.88
2018-05-12T05:09:06.731Z,61.88
2018-05-12T05:10:06.749Z,61.88
2018-05-12T05:11:06.772Z,61.88
2018-05-12T05:12:06.794Z,61.88
2018-05-12T05:13:06.815Z,61.88
2018-05-12T05:14:06.837Z,61.88
2018-05-12T05:15:06.858Z,61.88
2018-05-12T05:16:06.879Z,61.88
2018-05-12T05:17:06.902Z,61.88
2018-05-12T05:18:06.922Z,61.88
2018-05-12T05:19:06.944Z,61.88
2018-05-12T05:20:06.967Z,67.50
2018-05-12T05:21:07.051Z,67.50
2018-05-12T05:22:07.008Z,67.50
2018-05-12T05:23:07.030Z,67.50
2018-05-12T05:24:07.059Z,67.50
2018-05-12T05:25:07.073Z,67.50
2018-05-12T05:26:07.096Z,67.50
2018-05-12T05:27:07.117Z,67.50
2018-05-12T05:28:07.138Z,67.50
2018-05-12T05:29:07.160Z,73.13
2018-05-12T05:30:07.182Z,73.13
2018-05-12T05:31:07.202Z,73.13
2018-05-12T05:32:07.224Z,73.13
2018-05-12T05:33:07.245Z,73.13
2018-05-12T05:34:07.267Z,73.13
2018-05-12T05:35:07.380Z,78.75
2018-05-12T05:36:07.311Z,78.75
2018-05-12T05:37:07.333Z,78.75
2018-05-12T05:38:07.353Z,84.38
2018-05-12T05:39:07.378Z,84.38
2018-05-12T05:40:07.397Z,90.00
2018-05-12T05:41:07.419Z,90.00
2018-05-12T05:42:07.440Z,90.00
2018-05-12T05:43:07.462Z,90.00
2018-05-12T05:44:07.485Z,90.00
2018-05-12T05:45:07.507Z,90.00
2018-05-12T05:46:07.528Z,90.00
2018-05-12T05:47:07.549Z,90.00
2018-05-12T05:48:07.573Z,90.00
2018-05-12T05:49:07.595Z,90.00
2018-05-12T05:50:07.712Z,90.00
2018-05-12T05:51:07.642Z,90.00
2018-05-12T05:52:07.663Z,90.00
2018-05-12T05:53:07.685Z,84.38
2018-05-12T05:54:07.710Z,78.75
2018-05-12T05:55:07.729Z,78.75
2018-05-12T05:56:07.754Z,78.75
2018-05-12T05:57:07.776Z,78.75
2018-05-12T05:58:07.797Z,84.38
2018-05-12T05:59:07.820Z,84.38
2018-05-12T06:00:07.841Z,84.38
2018-05-12T06:01:07.866Z,84.38
2018-05-12T06:02:07.888Z,84.38
2018-05-12T06:03:07.911Z,84.38
2018-05-12T06:04:07.937Z,84.38
2018-05-12T06:05:07.958Z,84.38
2018-05-12T06:06:07.978Z,78.75
2018-05-12T06:07:08.089Z,84.38
2018-05-12T06:08:08.025Z,84.38
2018-05-12T06:09:08.047Z,90.00
2018-05-12T06:10:08.072Z,90.00
2018-05-12T06:11:08.092Z,95.63
2018-05-12T06:12:08.115Z,95.63
2018-05-12T06:13:08.138Z,95.63
2018-05-12T06:14:08.161Z,95.63
2018-05-12T06:15:08.182Z,90.00
2018-05-12T06:16:08.205Z,90.00
2018-05-12T06:17:08.229Z,95.63
2018-05-12T06:18:08.272Z,101.25
2018-05-12T06:19:08.275Z,101.25
2018-05-12T06:20:08.298Z,101.25
2018-05-12T06:21:08.320Z,101.25
2018-05-12T06:22:08.341Z,101.25
2018-05-12T06:23:08.364Z,101.25
2018-05-12T06:24:08.387Z,101.25
2018-05-12T06:25:08.410Z,101.25
2018-05-12T06:26:08.432Z,101.25
2018-05-12T06:27:08.455Z,101.25
2018-05-12T06:28:08.478Z,101.25
2018-05-12T06:29:08.506Z,106.88
2018-05-12T06:30:08.526Z,106.88
2018-05-12T06:31:08.546Z,106.88
2018-05-12T06:32:08.571Z,106.88
2018-05-12T06:33:08.593Z,106.88
2018-05-12T06:34:08.615Z,101.25
2018-05-12T06:35:08.639Z,106.88
2018-05-12T06:36:08.662Z,101.25
2018-05-12T06:37:08.685Z,101.25
2018-05-12T06:38:08.708Z,106.88
2018-05-12T06:39:08.730Z,106.88
2018-05-12T06:40:08.754Z,106.88
2018-05-12T06:41:08.777Z,106.88
2018-05-12T06:42:08.799Z,106.88
2018-05-12T06:43:08.821Z,112.50
2018-05-12T06:44:08.845Z,112.50
2018-05-12T06:45:08.868Z,112.50
2018-05-12T06:46:08.890Z,118.13
2018-05-12T06:47:08.913Z,118.13
2018-05-12T06:48:08.938Z,118.13
2018-05-12T06:49:08.960Z,112.50
2018-05-12T06:50:08.982Z,118.13
2018-05-12T06:51:09.005Z,112.50
2018-05-12T06:52:09.032Z,112.50
2018-05-12T06:53:09.052Z,112.50
2018-05-12T06:54:09.075Z,112.50
2018-05-12T06:55:09.098Z,106.88
2018-05-12T06:56:09.120Z,112.50
2018-05-12T06:57:09.143Z,112.50
2018-05-12T06:58:09.166Z,112.50
2018-05-12T06:59:09.189Z,118.13
2018-05-12T07:00:09.213Z,118.13
2018-05-12T07:01:09.241Z,123.75
2018-05-12T07:02:09.263Z,118.13
2018-05-12T07:03:09.282Z,123.75
2018-05-12T07:04:09.307Z,118.13
2018-05-12T07:05:09.334Z,129.38
2018-05-12T07:06:09.352Z,118.13
2018-05-12T07:07:09.374Z,118.13
2018-05-12T07:08:09.400Z,123.75
2018-05-12T07:09:09.421Z,123.75
2018-05-12T07:10:09.443Z,123.75
2018-05-12T07:11:09.468Z,129.38
2018-05-12T07:12:09.501Z,129.38
2018-05-12T07:13:09.518Z,129.38
2018-05-12T07:14:09.538Z,129.38
2018-05-12T07:15:09.565Z,129.38
2018-05-12T07:16:09.584Z,135.00
2018-05-12T07:17:09.609Z,123.75
2018-05-12T07:18:09.632Z,123.75
2018-05-12T07:19:09.656Z,123.75
2018-05-12T07:20:09.679Z,118.13
2018-05-12T07:21:09.704Z,118.13
2018-05-12T07:22:09.727Z,123.75
2018-05-12T07:23:09.752Z,123.75
2018-05-12T07:24:09.776Z,129.38
2018-05-12T07:25:09.801Z,129.38
2018-05-12T07:26:09.825Z,129.38
2018-05-12T07:27:09.849Z,135.00
2018-05-12T07:28:09.879Z,135.00
2018-05-12T07:29:09.899Z,129.38
2018-05-12T07:30:09.923Z,129.38
2018-05-12T07:31:09.948Z,129.38
2018-05-12T07:32:09.976Z,129.38
2018-05-12T07:33:09.997Z,123.75
2018-05-12T07:34:10.023Z,129.38
2018-05-12T07:35:10.046Z,123.75
2018-05-12T07:36:10.075Z,118.13
2018-05-12T07:37:10.101Z,118.13
2018-05-12T07:38:10.122Z,123.75
2018-05-12T07:39:10.241Z,118.13
2018-05-12T07:40:10.172Z,123.75
2018-05-12T07:41:10.198Z,123.75
2018-05-12T07:42:10.225Z,123.75
2018-05-12T07:43:10.248Z,123.75
2018-05-12T07:44:10.277Z,129.38
2018-05-12T07:45:10.299Z,129.38
2018-05-12T07:46:10.323Z,129.38
2018-05-12T07:47:10.349Z,135.00
2018-05-12T07:48:10.374Z,140.63
2018-05-12T07:49:10.400Z,140.63
2018-05-12T07:50:10.425Z,146.25
2018-05-12T07:51:10.450Z,146.25
2018-05-12T07:52:10.476Z,140.63
2018-05-12T07:53:10.502Z,140.63
2018-05-12T07:54:10.576Z,140.63
2018-05-12T07:55:10.552Z,140.63
2018-05-12T07:56:10.579Z,146.25
2018-05-12T07:57:10.603Z,146.25
2018-05-12T07:58:10.628Z,146.25
2018-05-12T07:59:10.653Z,146.25
2018-05-12T08:00:10.679Z,146.25
2018-05-12T08:01:10.705Z,146.25
2018-05-12T08:02:10.730Z,135.00
2018-05-12T08:03:10.755Z,146.25
2018-05-12T08:04:10.781Z,146.25
2018-05-12T08:05:10.810Z,146.25
2018-05-12T08:06:10.838Z,146.25
2018-05-12T08:07:10.857Z,146.25
2018-05-12T08:08:10.884Z,146.25
2018-05-12T08:09:10.909Z,146.25
2018-05-12T08:10:10.985Z,146.25
2018-05-12T08:11:10.960Z,146.25
2018-05-12T08:12:10.985Z,146.25
2018-05-12T08:13:11.012Z,146.25
2018-05-12T08:14:11.037Z,146.25
2018-05-12T08:15:11.063Z,146.25
2018-05-12T08:16:11.090Z,146.25
2018-05-12T08:17:11.118Z,146.25
2018-05-12T08:18:11.143Z,146.25
2018-05-12T08:19:11.165Z,146.25
2018-05-12T08:20:11.193Z,146.25
2018-05-12T08:21:11.217Z,146.25
2018-05-12T08:22:11.242Z,146.25
2018-05-12T08:23:11.268Z,146.25
2018-05-12T08:24:11.294Z,146.25
2018-05-12T08:25:11.319Z,140.63
2018-05-12T08:26:11.477Z,146.25
2018-05-12T08:27:11.371Z,146.25
2018-05-12T08:28:11.397Z,140.63
2018-05-12T08:29:11.423Z,146.25
2018-05-12T08:30:11.448Z,140.63
2018-05-12T08:31:11.474Z,146.25
2018-05-12T08:32:11.500Z,146.25
2018-05-12T08:33:11.526Z,140.63
2018-05-12T08:34:11.552Z,146.25
2018-05-12T08:35:11.577Z,146.25
2018-05-12T08:36:11.655Z,146.25
2018-05-12T08:37:11.632Z,146.25
2018-05-12T08:38:11.654Z,146.25
2018-05-12T08:39:11.682Z,146.25
2018-05-12T08:40:11.707Z,146.25
2018-05-12T08:41:11.736Z,146.25
2018-05-12T08:42:11.758Z,146.25
2018-05-12T08:43:11.784Z,146.25
2018-05-12T08:44:11.811Z,146.25
2018-05-12T08:45:11.839Z,146.25
2018-05-12T08:46:11.861Z,146.25
2018-05-12T08:47:11.888Z,146.25
2018-05-12T08:48:11.967Z,146.25
2018-05-12T08:49:11.943Z,146.25
2018-05-12T08:50:11.965Z,146.25
2018-05-12T08:51:11.992Z,146.25
2018-05-12T08:52:12.019Z,146.25
2018-05-12T08:53:12.045Z,146.25
2018-05-12T08:54:12.173Z,146.25
2018-05-12T08:55:12.131Z,146.25
2018-05-12T08:56:12.123Z,146.25
2018-05-12T08:57:12.148Z,146.25
2018-05-12T08:58:12.179Z,140.63
2018-05-12T08:59:12.201Z,146.25
2018-05-12T09:00:12.226Z,146.25
2018-05-12T09:01:12.253Z,146.25
2018-05-12T09:02:12.280Z,146.25
2018-05-12T09:03:12.308Z,146.25
2018-05-12T09:04:12.330Z,151.88
2018-05-12T09:05:12.355Z,151.88
2018-05-12T09:06:12.381Z,151.88
2018-05-12T09:07:12.419Z,157.50
2018-05-12T09:08:12.434Z,151.88
2018-05-12T09:09:12.460Z,157.50
2018-05-12T09:10:12.488Z,157.50
2018-05-12T09:11:12.512Z,157.50
2018-05-12T09:12:12.540Z,157.50
2018-05-12T09:13:12.565Z,157.50
2018-05-12T09:14:12.591Z,157.50
2018-05-12T09:15:12.617Z,157.50
2018-05-12T09:16:12.647Z,163.13
2018-05-12T09:17:12.675Z,157.50
2018-05-12T09:18:12.696Z,163.13
2018-05-12T09:19:12.811Z,163.13
2018-05-12T09:20:12.751Z,157.50
2018-05-12T09:21:12.775Z,157.50
2018-05-12T09:22:12.802Z,151.88
2018-05-12T09:23:12.828Z,151.88
2018-05-12T09:24:12.856Z,163.13
2018-05-12T09:25:12.881Z,157.50
2018-05-12T09:26:12.907Z,157.50
2018-05-12T09:27:12.934Z,157.50
2018-05-12T09:28:12.960Z,163.13
2018-05-12T09:29:12.987Z,163.13
2018-05-12T09:30:13.011Z,157.50
2018-05-12T09:31:13.039Z,157.50
2018-05-12T09:32:13.065Z,157.50
2018-05-12T09:33:13.093Z,163.13
2018-05-12T09:34:13.122Z,168.75
2018-05-12T09:35:13.145Z,163.13
2018-05-12T09:36:13.221Z,168.75
2018-05-12T09:37:13.201Z,163.13
2018-05-12T09:38:13.224Z,163.13
2018-05-12T09:39:13.251Z,168.75
2018-05-12T09:40:13.276Z,163.13
2018-05-12T09:41:13.305Z,163.13
2018-05-12T09:42:13.364Z,157.50
2018-05-12T09:43:13.356Z,157.50
2018-05-12T09:44:13.383Z,135.00
2018-05-12T09:45:13.411Z,140.63
2018-05-12T09:46:13.434Z,168.75
2018-05-12T09:47:13.462Z,180.00
2018-05-12T09:48:13.489Z,163.13
2018-05-12T09:49:13.519Z,163.13
2018-05-12T09:50:13.541Z,151.88
2018-05-12T09:51:13.568Z,157.50
2018-05-12T09:52:13.595Z,157.50
2018-05-12T09:53:13.871Z,163.13
2018-05-12T09:54:13.647Z,163.13
2018-05-12T09:55:13.673Z,163.13
2018-05-12T09:56:13.701Z,163.13
2018-05-12T09:57:13.727Z,163.13
2018-05-12T09:58:13.752Z,168.75
2018-05-12T09:59:13.780Z,163.13
2018-05-12T10:00:13.806Z,163.13
2018-05-12T10:01:13.834Z,151.88
2018-05-12T10:02:13.860Z,157.50
2018-05-12T10:03:13.886Z,163.13
2018-05-12T10:04:13.914Z,163.13
2018-05-12T10:05:13.940Z,168.75
2018-05-12T10:06:13.967Z,157.50
2018-05-12T10:07:13.994Z,157.50
2018-05-12T10:08:14.028Z,157.50
2018-05-12T10:09:14.049Z,157.50
2018-05-12T10:10:14.074Z,129.38
2018-05-12T10:11:14.102Z,157.50
2018-05-12T10:12:14.129Z,168.75
2018-05-12T10:13:14.157Z,163.13
2018-05-12T10:14:14.182Z,112.50
2018-05-12T10:15:14.210Z,106.88
2018-05-12T10:16:14.237Z,163.13
2018-05-12T10:17:14.265Z,157.50
2018-05-12T10:18:14.289Z,163.13
2018-05-12T10:19:14.318Z,112.50
2018-05-12T10:20:14.345Z,112.50
2018-05-12T10:21:14.372Z,118.13
2018-05-12T10:22:14.398Z,118.13
2018-05-12T10:23:14.425Z,112.50
2018-05-12T10:24:14.453Z,112.50
2018-05-12T10:25:14.481Z,112.50
2018-05-12T10:26:14.628Z,129.38
2018-05-12T10:27:14.583Z,129.38
2018-05-12T10:28:14.561Z,135.00
2018-05-12T10:29:14.587Z,140.63
2018-05-12T10:30:14.613Z,180.00
2018-05-12T10:31:14.642Z,157.50
2018-05-12T10:32:14.669Z,146.25
2018-05-12T10:33:14.694Z,140.63
2018-05-12T10:34:14.723Z,135.00
2018-05-12T10:35:14.748Z,129.38
2018-05-12T10:36:14.774Z,129.38
2018-05-12T10:37:14.801Z,123.75
2018-05-12T10:38:14.826Z,118.13
2018-05-12T10:39:14.857Z,118.13
2018-05-12T10:40:14.881Z,123.75
2018-05-12T10:41:14.909Z,123.75
2018-05-12T10:42:14.934Z,129.38
2018-05-12T10:43:14.960Z,140.63
2018-05-12T10:44:14.987Z,151.88
2018-05-12T10:45:15.017Z,180.00
2018-05-12T10:46:15.040Z,185.63
2018-05-12T10:47:15.067Z,196.88
2018-05-12T10:48:15.093Z,196.88
2018-05-12T10:49:15.122Z,202.50
2018-05-12T10:50:15.146Z,202.50
2018-05-12T10:51:15.173Z,202.50
2018-05-12T10:52:15.200Z,202.50
2018-05-12T10:53:15.227Z,191.25
2018-05-12T10:54:15.252Z,191.25
2018-05-12T10:55:15.280Z,191.25
2018-05-12T10:56:15.306Z,191.25
2018-05-12T10:57:15.334Z,185.63
2018-05-12T10:58:15.360Z,191.25
2018-05-12T10:59:15.387Z,185.63
2018-05-12T11:00:15.414Z,185.63
2018-05-12T11:01:15.442Z,191.25
2018-05-12T11:02:15.471Z,191.25
2018-05-12T11:03:15.495Z,196.88
2018-05-12T11:04:15.522Z,202.50
2018-05-12T11:05:15.551Z,196.88
2018-05-12T11:06:15.576Z,196.88
2018-05-12T11:07:15.640Z,191.25
2018-05-12T11:08:15.632Z,185.63
2018-05-12T11:09:15.657Z,180.00
2018-05-12T11:10:15.685Z,174.38
2018-05-12T11:11:15.713Z,174.38
2018-05-12T11:12:15.741Z,174.38
2018-05-12T11:13:15.771Z,174.38
2018-05-12T11:14:15.795Z,174.38
2018-05-12T11:15:15.823Z,174.38
2018-05-12T11:16:15.851Z,180.00
2018-05-12T11:17:15.878Z,185.63
2018-05-12T11:18:15.906Z,191.25
2018-05-12T11:19:15.933Z,191.25
2018-05-12T11:20:15.964Z,196.88
2018-05-12T11:21:15.988Z,196.88
2018-05-12T11:22:16.015Z,196.88
2018-05-12T11:23:16.044Z,191.25
2018-05-12T11:24:16.072Z,196.88
2018-05-12T11:25:16.101Z,196.88
2018-05-12T11:26:16.127Z,191.25
2018-05-12T11:27:16.156Z,196.88
2018-05-12T11:28:16.189Z,202.50
2018-05-12T11:29:16.211Z,202.50
2018-05-12T11:30:16.237Z,202.50
2018-05-12T11:31:16.268Z,202.50
2018-05-12T11:32:16.414Z,196.88
2018-05-12T11:33:16.323Z,191.25
2018-05-12T11:34:16.352Z,191.25
2018-05-12T11:35:16.377Z,185.63
2018-05-12T11:36:16.406Z,185.63
2018-05-12T11:37:16.433Z,185.63
2018-05-12T11:38:16.460Z,185.63
2018-05-12T11:39:16.488Z,163.13
2018-05-12T11:40:16.516Z,163.13
2018-05-12T11:41:16.544Z,185.63
2018-05-12T11:42:16.570Z,185.63
2018-05-12T11:43:16.602Z,163.13
2018-05-12T11:44:16.626Z,157.50
2018-05-12T11:45:16.655Z,157.50
2018-05-12T11:46:16.681Z,168.75
2018-05-12T11:47:16.709Z,180.00
2018-05-12T11:48:16.737Z,185.63
2018-05-12T11:49:16.767Z,185.63
2018-05-12T11:50:16.797Z,185.63
2018-05-12T11:51:16.819Z,185.63
2018-05-12T11:52:16.847Z,191.25
2018-05-12T11:53:16.874Z,185.63
2018-05-12T11:54:16.900Z,180.00
2018-05-12T11:55:16.933Z,180.00
2018-05-12T11:56:16.956Z,185.63
2018-05-12T11:57:16.983Z,163.13
2018-05-12T11:58:17.015Z,180.00
2018-05-12T11:59:17.036Z,191.25
2018-05-12T12:00:17.066Z,196.88
2018-05-12T12:01:17.092Z,202.50
2018-05-12T12:02:17.124Z,202.50
2018-05-12T12:03:17.146Z,202.50
2018-05-12T12:04:17.174Z,208.13
2018-05-12T12:05:17.203Z,208.13
2018-05-12T12:06:17.232Z,202.50
2018-05-12T12:07:17.257Z,202.50
2018-05-12T12:08:17.287Z,202.50
2018-05-12T12:09:17.312Z,196.88
2018-05-12T12:10:17.339Z,185.63
2018-05-12T12:11:17.366Z,180.00
2018-05-12T12:12:17.396Z,185.63
2018-05-12T12:13:17.423Z,191.25
2018-05-12T12:14:17.449Z,196.88
2018-05-12T12:15:17.477Z,196.88
2018-05-12T12:16:17.510Z,191.25
2018-05-12T12:17:17.534Z,180.00
2018-05-12T12:18:17.565Z,196.88
2018-05-12T12:19:17.588Z,191.25
2018-05-12T12:20:17.616Z,180.00
2018-05-12T12:21:17.644Z,185.63
2018-05-12T12:22:17.669Z,202.50
2018-05-12T12:23:17.698Z,196.88
2018-05-12T12:24:17.725Z,202.50
2018-05-12T12:25:17.753Z,196.88
2018-05-12T12:26:17.780Z,191.25
2018-05-12T12:27:17.807Z,185.63
2018-05-12T12:28:17.836Z,191.25
2018-05-12T12:29:17.862Z,185.63
2018-05-12T12:30:17.893Z,196.88
2018-05-12T12:31:17.918Z,202.50
2018-05-12T12:32:17.944Z,202.50
2018-05-12T12:33:18.101Z,202.50
2018-05-12T12:34:18.000Z,202.50
2018-05-12T12:35:18.028Z,196.88
2018-05-12T12:36:18.057Z,202.50
2018-05-12T12:37:18.083Z,196.88
2018-05-12T12:38:18.111Z,196.88
2018-05-12T12:39:18.141Z,191.25
2018-05-12T12:40:18.170Z,196.88
2018-05-12T12:41:18.195Z,191.25
2018-05-12T12:42:18.223Z,191.25
2018-05-12T12:43:18.250Z,191.25
2018-05-12T12:44:18.277Z,196.88
2018-05-12T12:45:18.311Z,202.50
2018-05-12T12:46:18.333Z,213.75
2018-05-12T12:47:18.361Z,219.38